Upper Marlboro, MD (20774)

5:07 AM EDT on July 31, 2016 (GMT -0400)
Old Stage | | Change Station
Active Advisory: Areal Flood Warning Active Notice: Public Information Statement

Elev 161 ft 38.96 °N, 76.76 °W | Updated 26 seconds ago

Partly Cloudy
Partly Cloudy
73.0 °F
Feels Like 72 °F
N
0.0
Wind Variable Wind from North
Gusts 0.0 mph

Today
High -- | Low -- °F
--% Chance of Precip.
Yesterday
High -- | Low -- °F
Precip. -- in
Pressure 29.97 in
Visibility 10.0 miles
Clouds Few 500 ft
Heat Index 72 °F
Dew Point 68 °F
Humidity 85%
Rainfall 0.00 in
Snow Depth Not available.
6:07 AM 8:18 PM
Waning Crescent, 8% visible
METAR KADW 310858Z AUTO 10003KT 10SM FEW005 22/21 A2995 RMK AO2 SLP147 T02190212 53002
Pressure 29.97 in
Visibility 10.0 miles
Clouds Few 500 ft
Heat Index 72 °F
Dew Point 68 °F
Humidity 85%
Rainfall 0.00 in
Snow Depth Not available.
6:07 AM 8:18 PM
Waning Crescent, 8% visible
METAR KADW 310858Z AUTO 10003KT 10SM FEW005 22/21 A2995 RMK AO2 SLP147 T02190212 53002

10-Day Weather Forecast

Almanac

Astronomy

Jul. 31, 2016 Rise Set
Actual Time
Civil Twilight
Nautical Twilight
Astronomical Twilight
Moon
Length of Visible Light
Length of Day
Tomorrow will be .
, % of the Moon is Illuminated

Today's Extremes

State Highs State Lows

Community

WunderPhotos

Upload Photos

1,928,768 photos uploaded!

WunderBlog® & News

Nearby

Air Quality

  Air Quality AQ Index Pollutant
Not available.

Snow Depth

Station Depth Elevation

Earthquake Activity

City Distance Mag. Time & Date
Minimum magnitude displayed is 2.5.

Coastal Water Temperatures

Place Temperature

Stations

Nearby Weather Stations

Station Location Temp. Windchill Dew Point Humidity Wind Precip. Elev Updated Type
                   

Watches & Warnings

Areal Flood Warning
Issued: 3:46 AM EDT Jul. 31, 2016 – National Weather Service

The National Weather Service in Sterling Virginia has extended the

* Flood Warning for...
northeastern Prince Georges County in central Maryland...
southeastern Howard County in central Maryland...
western Anne Arundel County in central Maryland...

* until 715 am EDT

* at 339 am EDT... reporting gauges indicated the little Patuxent
River was still above flood stage and still rising downstream of
Columbia... including the Savage area. This flooding will continue
into the morning hours and move downstream towards Bowie.

* Some locations that will experience flooding include...
Columbia... Bowie... Severn... Crofton... Elkridge... Odenton... Fort
Meade... Savage-Guilford... Scaggsville... Jessup... Savage... Fulton...
Prince Georges stadium and Georgetown.

Precautionary/preparedness actions...

Be especially cautious at night when it is harder to recognize the
dangers of flooding.

Stay away or be swept away. River banks and culverts can become
unstable and unsafe.


Lat... Lon 3881 7666 3881 7672 3899 7673 3906 7678
      3916 7690 3918 7673 3893 7663


Mjm